createdAt,value
2022-09-09T00:00:33.638Z,20.20
2022-09-09T00:02:35.357Z,20.30
2022-09-09T00:04:38.129Z,20.20
2022-09-09T00:06:57.847Z,20.20
2022-09-09T00:09:00.230Z,20.20
2022-09-09T00:11:05.599Z,20.20
2022-09-09T00:13:17.999Z,20.30
2022-09-09T00:15:21.650Z,20.20
2022-09-09T00:17:41.860Z,20.30
2022-09-09T00:19:47.235Z,20.20
2022-09-09T00:22:14.182Z,20.20
2022-09-09T00:24:36.311Z,20.20
2022-09-09T00:26:43.526Z,20.20
2022-09-09T00:28:59.974Z,20.20
2022-09-09T00:31:09.653Z,20.20
2022-09-09T00:33:15.832Z,20.30
2022-09-09T00:35:19.885Z,20.20
2022-09-09T00:37:23.194Z,20.20
2022-09-09T00:39:42.983Z,20.20
2022-09-09T00:41:51.932Z,20.20
2022-09-09T00:44:12.323Z,20.20
2022-09-09T00:46:24.651Z,20.20
2022-09-09T00:48:32.690Z,20.20
2022-09-09T00:50:53.256Z,20.20
2022-09-09T00:53:13.266Z,20.20
2022-09-09T00:55:30.173Z,20.20
2022-09-09T00:57:33.286Z,20.20
2022-09-09T00:59:43.388Z,20.30
2022-09-09T01:01:45.406Z,20.20
2022-09-09T01:03:47.028Z,20.20
2022-09-09T01:05:52.558Z,20.20
2022-09-09T01:07:58.344Z,20.20
2022-09-09T01:10:01.625Z,20.20
2022-09-09T01:12:14.054Z,20.20
2022-09-09T01:14:28.583Z,20.20
2022-09-09T01:16:31.035Z,20.20
2022-09-09T01:18:45.072Z,20.20
2022-09-09T01:20:50.634Z,20.30
2022-09-09T01:23:30.714Z,20.30
2022-09-09T01:25:44.644Z,20.30
2022-09-09T01:28:01.670Z,20.30
2022-09-09T01:30:06.008Z,20.30
2022-09-09T01:32:27.037Z,20.30
2022-09-09T01:34:34.167Z,20.30
2022-09-09T01:36:38.967Z,20.40
2022-09-09T01:38:41.364Z,20.40
2022-09-09T01:40:43.038Z,20.40
2022-09-09T01:42:44.790Z,20.40
2022-09-09T01:44:46.557Z,20.40
2022-09-09T01:46:48.386Z,20.40
2022-09-09T01:48:55.753Z,20.40
2022-09-09T01:50:57.360Z,20.30
2022-09-09T01:53:00.211Z,20.30
2022-09-09T01:55:06.161Z,20.30
2022-09-09T01:57:12.528Z,20.30
2022-09-09T01:59:23.845Z,20.30
2022-09-09T02:01:29.318Z,20.30
2022-09-09T02:03:32.986Z,20.30
2022-09-09T02:06:08.775Z,20.30
2022-09-09T02:08:19.073Z,20.30
2022-09-09T02:10:33.179Z,20.30
2022-09-09T02:12:47.982Z,20.30
2022-09-09T02:14:52.981Z,20.30
2022-09-09T02:17:03.964Z,20.30
2022-09-09T02:19:27.267Z,20.30
2022-09-09T02:21:37.949Z,20.30
2022-09-09T02:23:40.684Z,20.30
2022-09-09T02:25:45.410Z,20.30
2022-09-09T02:27:56.181Z,20.30
2022-09-09T02:30:01.259Z,20.30
2022-09-09T02:32:18.733Z,20.30
2022-09-09T02:34:21.455Z,20.30
2022-09-09T02:36:24.731Z,20.30
2022-09-09T02:38:27.473Z,20.30
2022-09-09T02:40:35.204Z,20.30
2022-09-09T02:42:39.861Z,20.30
2022-09-09T02:44:42.056Z,20.30
2022-09-09T02:47:07.125Z,20.30
2022-09-09T02:49:47.143Z,20.30
2022-09-09T02:51:56.196Z,20.30
2022-09-09T02:54:05.255Z,20.30
2022-09-09T02:56:10.246Z,20.20
2022-09-09T02:58:20.211Z,20.20
2022-09-09T03:00:33.270Z,20.20
2022-09-09T03:02:38.198Z,20.20
2022-09-09T03:04:44.029Z,20.20
2022-09-09T03:06:45.678Z,20.30
2022-09-09T03:08:54.587Z,20.20
2022-09-09T03:11:02.270Z,20.30
2022-09-09T03:13:06.464Z,20.20
2022-09-09T03:15:12.120Z,20.20
2022-09-09T03:17:14.899Z,20.20
2022-09-09T03:19:23.630Z,20.20
2022-09-09T03:21:26.379Z,20.20
2022-09-09T03:23:30.260Z,20.20
2022-09-09T03:25:34.465Z,20.30
2022-09-09T03:27:36.311Z,20.30
2022-09-09T03:29:38.948Z,20.10
2022-09-09T03:31:43.880Z,20.20
2022-09-09T03:33:45.734Z,20.30
2022-09-09T03:35:49.665Z,20.20
2022-09-09T03:37:53.345Z,20.20
2022-09-09T03:39:57.738Z,20.20
2022-09-09T03:41:59.583Z,20.20
2022-09-09T03:44:01.387Z,20.20
2022-09-09T03:46:06.272Z,20.20
2022-09-09T03:48:08.069Z,20.20
2022-09-09T03:50:11.348Z,20.20
2022-09-09T03:52:21.620Z,20.20
2022-09-09T03:54:26.214Z,20.20
2022-09-09T03:56:27.817Z,20.20
2022-09-09T03:58:29.745Z,20.20
2022-09-09T04:00:43.291Z,20.20
2022-09-09T04:02:45.234Z,20.20
2022-09-09T04:04:50.132Z,20.20
2022-09-09T04:06:52.548Z,20.10
2022-09-09T04:08:54.246Z,20.10
2022-09-09T04:10:59.525Z,20.10
2022-09-09T04:13:02.720Z,20.10
2022-09-09T04:15:04.846Z,20.10
2022-09-09T04:17:07.289Z,20.10
2022-09-09T04:19:09.214Z,20.10
2022-09-09T04:21:11.422Z,20.10
2022-09-09T04:23:13.019Z,20.10
2022-09-09T04:25:14.977Z,20.10
2022-09-09T04:27:16.662Z,20.00
2022-09-09T04:29:18.349Z,20.10
2022-09-09T04:31:22.458Z,20.10
2022-09-09T04:33:28.311Z,20.00
2022-09-09T04:35:29.964Z,20.00
2022-09-09T04:37:31.649Z,20.00
2022-09-09T04:39:33.676Z,20.00
2022-09-09T04:41:36.260Z,20.00
2022-09-09T04:43:38.435Z,20.00
2022-09-09T04:45:42.671Z,20.00
2022-09-09T04:47:44.462Z,20.00
2022-09-09T04:49:46.419Z,20.00
2022-09-09T04:51:50.039Z,20.00
2022-09-09T04:53:54.790Z,20.00
2022-09-09T04:56:03.805Z,20.00
2022-09-09T04:58:08.491Z,20.00
2022-09-09T05:00:11.367Z,20.10
2022-09-09T05:02:15.350Z,20.10
2022-09-09T05:04:17.211Z,20.00
2022-09-09T05:06:19.885Z,20.10
2022-09-09T05:08:23.846Z,20.10
2022-09-09T05:10:25.452Z,20.00
2022-09-09T05:12:27.049Z,20.00
2022-09-09T05:14:28.821Z,20.00
2022-09-09T05:16:31.155Z,20.00
2022-09-09T05:18:32.863Z,20.00
2022-09-09T05:20:34.662Z,20.00
2022-09-09T05:22:37.178Z,20.00
2022-09-09T05:24:39.297Z,20.10
2022-09-09T05:26:41.022Z,20.00
2022-09-09T05:28:42.929Z,20.00
2022-09-09T05:30:44.546Z,20.00
2022-09-09T05:32:46.123Z,20.00
2022-09-09T05:34:48.400Z,20.00
2022-09-09T05:36:50.411Z,20.00
2022-09-09T05:38:54.589Z,20.00
2022-09-09T05:40:57.753Z,20.00
2022-09-09T05:43:00.689Z,20.10
2022-09-09T05:45:02.642Z,20.20
2022-09-09T05:47:04.419Z,20.10
2022-09-09T05:49:06.466Z,20.10
2022-09-09T05:51:12.768Z,20.10
2022-09-09T05:53:14.695Z,20.10
2022-09-09T05:55:16.581Z,20.10
2022-09-09T05:57:19.803Z,20.10
2022-09-09T05:59:22.649Z,20.10
2022-09-09T06:01:27.773Z,20.10
2022-09-09T06:03:29.620Z,20.20
2022-09-09T06:05:31.302Z,20.20
2022-09-09T06:07:33.745Z,20.20
2022-09-09T06:09:35.624Z,20.20
2022-09-09T06:11:38.535Z,20.20
2022-09-09T06:13:40.711Z,20.20
2022-09-09T06:15:50.723Z,20.20
2022-09-09T06:17:56.555Z,20.20
2022-09-09T06:19:58.242Z,20.30
2022-09-09T06:21:59.921Z,20.30
2022-09-09T06:24:04.154Z,20.30
2022-09-09T06:26:07.623Z,20.30
2022-09-09T06:28:10.014Z,20.40
2022-09-09T06:30:12.159Z,20.30
2022-09-09T06:32:13.852Z,20.40
2022-09-09T06:34:15.724Z,20.40
2022-09-09T06:36:22.917Z,20.40
2022-09-09T06:38:24.767Z,20.40
2022-09-09T06:40:26.382Z,20.40
2022-09-09T06:42:28.377Z,20.50
2022-09-09T06:44:39.479Z,20.50
2022-09-09T06:46:44.342Z,20.50
2022-09-09T06:48:46.946Z,20.50
2022-09-09T06:50:50.842Z,20.50
2022-09-09T06:52:53.658Z,20.50
2022-09-09T06:54:55.540Z,20.50
2022-09-09T06:56:57.555Z,20.50
2022-09-09T06:59:04.975Z,20.60
2022-09-09T07:01:08.007Z,20.60
2022-09-09T07:03:11.174Z,20.60
2022-09-09T07:05:12.967Z,20.60
2022-09-09T07:07:16.741Z,20.60
2022-09-09T07:09:19.191Z,20.70
2022-09-09T07:11:24.304Z,20.60
2022-09-09T07:13:26.877Z,20.60
2022-09-09T07:15:29.310Z,20.70
2022-09-09T07:17:30.980Z,20.60
2022-09-09T07:19:35.273Z,20.70
2022-09-09T07:21:37.797Z,20.70
2022-09-09T07:23:40.214Z,20.70
2022-09-09T07:25:46.171Z,20.70
2022-09-09T07:27:48.256Z,20.70
2022-09-09T07:29:49.917Z,20.70
2022-09-09T07:31:51.596Z,20.80
2022-09-09T07:33:59.195Z,20.80
2022-09-09T07:36:05.230Z,20.80
2022-09-09T07:38:07.560Z,20.80
2022-09-09T07:40:09.541Z,20.80
2022-09-09T07:42:14.408Z,20.90
2022-09-09T07:44:18.354Z,20.90
2022-09-09T07:46:23.534Z,20.90
2022-09-09T07:48:25.790Z,20.90
2022-09-09T07:50:27.624Z,21.00
2022-09-09T07:52:29.560Z,21.00
2022-09-09T07:54:35.147Z,21.10
2022-09-09T07:56:40.498Z,21.00
2022-09-09T07:58:43.627Z,21.10
2022-09-09T08:00:45.571Z,21.10
2022-09-09T08:02:47.718Z,21.10
2022-09-09T08:04:49.748Z,21.20
2022-09-09T08:06:57.854Z,21.20
2022-09-09T08:09:01.030Z,21.20
2022-09-09T08:11:06.006Z,21.30
2022-09-09T08:13:17.816Z,21.30
2022-09-09T08:15:20.477Z,21.30
2022-09-09T08:17:22.168Z,21.40
2022-09-09T08:19:24.491Z,21.40
2022-09-09T08:21:29.283Z,21.40
2022-09-09T08:23:32.484Z,21.40
2022-09-09T08:25:35.367Z,21.40
2022-09-09T08:27:38.117Z,21.40
2022-09-09T08:29:40.332Z,21.40
2022-09-09T08:31:47.366Z,21.50
2022-09-09T08:33:53.199Z,21.50
2022-09-09T08:35:56.057Z,21.50
2022-09-09T08:37:58.502Z,21.50
2022-09-09T08:40:00.370Z,21.60
2022-09-09T08:42:05.966Z,21.60
2022-09-09T08:44:18.722Z,21.60
2022-09-09T08:46:27.125Z,21.60
2022-09-09T08:48:32.361Z,21.60
2022-09-09T08:50:39.421Z,21.60
2022-09-09T08:53:04.627Z,21.60
2022-09-09T08:55:22.914Z,21.60
2022-09-09T08:57:27.902Z,21.60
2022-09-09T08:59:30.241Z,21.60
2022-09-09T09:01:47.628Z,21.60
2022-09-09T09:03:58.221Z,21.60
2022-09-09T09:06:29.373Z,21.60
2022-09-09T09:08:45.190Z,21.60
2022-09-09T09:10:51.574Z,21.60
2022-09-09T09:12:57.294Z,21.60
2022-09-09T09:15:00.094Z,21.60
2022-09-09T09:17:04.554Z,21.60
2022-09-09T09:19:11.100Z,21.60
2022-09-09T09:21:16.460Z,21.60
2022-09-09T09:23:31.879Z,21.60
2022-09-09T09:25:40.342Z,21.60
2022-09-09T09:28:10.110Z,21.60
2022-09-09T09:30:32.272Z,21.60
2022-09-09T09:33:05.587Z,21.60
2022-09-09T09:35:22.689Z,21.60
2022-09-09T09:40:30.702Z,21.70
2022-09-09T09:42:33.208Z,21.70
2022-09-09T09:44:38.184Z,21.70
2022-09-09T09:46:46.775Z,21.70
2022-09-09T09:49:03.073Z,21.80
2022-09-09T09:51:11.441Z,21.80
2022-09-09T09:53:21.877Z,21.90
2022-09-09T09:55:25.456Z,21.80
2022-09-09T10:00:29.247Z,21.90
2022-09-09T10:02:40.201Z,22.00
2022-09-09T10:04:46.139Z,22.00
2022-09-09T10:06:48.112Z,22.00
2022-09-09T10:08:49.722Z,22.10
2022-09-09T10:11:15.587Z,22.10
2022-09-09T10:13:37.474Z,22.20
2022-09-09T10:15:52.542Z,22.20
2022-09-09T10:18:12.888Z,22.20
2022-09-09T10:20:22.973Z,22.20
2022-09-09T10:22:35.152Z,22.20
2022-09-09T10:24:52.035Z,22.30
2022-09-09T10:27:04.846Z,22.30
2022-09-09T10:29:06.652Z,22.30
2022-09-09T10:31:24.643Z,22.30
2022-09-09T10:33:33.354Z,22.30
2022-09-09T10:35:37.941Z,22.40
2022-09-09T10:37:50.871Z,22.40
2022-09-09T10:39:59.320Z,22.40
2022-09-09T10:42:09.940Z,22.40
2022-09-09T10:44:35.340Z,22.50
2022-09-09T10:46:55.205Z,22.60
2022-09-09T10:49:20.738Z,22.60
2022-09-09T10:51:24.530Z,22.70
2022-09-09T10:53:35.098Z,22.80
2022-09-09T10:55:39.917Z,22.90
2022-09-09T10:57:44.879Z,23.00
2022-09-09T10:59:49.518Z,23.00
2022-09-09T11:01:54.326Z,23.10
2022-09-09T11:03:58.238Z,23.20
2022-09-09T11:06:06.024Z,23.30
2022-09-09T11:08:13.109Z,23.40
2022-09-09T11:10:19.798Z,23.50
2022-09-09T11:12:21.541Z,23.60
2022-09-09T11:14:43.981Z,23.70
2022-09-09T11:16:53.364Z,23.70
2022-09-09T11:19:04.258Z,23.80
2022-09-09T11:21:08.799Z,23.80
2022-09-09T11:23:13.382Z,23.90
2022-09-09T11:25:15.157Z,24.00
2022-09-09T11:27:17.185Z,24.00
2022-09-09T11:29:19.043Z,24.00
2022-09-09T11:31:35.947Z,24.00
2022-09-09T11:33:44.282Z,24.10
2022-09-09T11:36:04.486Z,24.10
2022-09-09T11:38:28.057Z,24.20
2022-09-09T11:40:31.496Z,24.20
2022-09-09T11:42:33.262Z,24.30
2022-09-09T11:44:35.171Z,24.40
2022-09-09T11:46:39.153Z,24.40
2022-09-09T11:48:44.232Z,24.60
2022-09-09T11:50:45.835Z,24.60
2022-09-09T11:52:49.263Z,24.70
2022-09-09T11:54:51.315Z,24.80
2022-09-09T11:56:52.926Z,24.90
2022-09-09T11:58:56.543Z,25.00
2022-09-09T12:00:58.146Z,25.10
2022-09-09T12:03:00.021Z,25.20
2022-09-09T12:05:13.094Z,25.30
2022-09-09T12:07:27.051Z,25.40
2022-09-09T12:09:32.676Z,25.50
2022-09-09T12:11:34.319Z,25.60
2022-09-09T12:13:37.476Z,25.60
2022-09-09T12:15:47.523Z,25.70
2022-09-09T12:17:54.175Z,25.70
2022-09-09T12:20:05.900Z,25.80
2022-09-09T12:22:26.051Z,25.80
2022-09-09T12:24:35.861Z,25.80
2022-09-09T12:26:39.255Z,25.90
2022-09-09T12:28:44.625Z,25.90
2022-09-09T12:31:01.597Z,25.90
2022-09-09T12:33:09.752Z,25.90
2022-09-09T12:35:19.467Z,25.90
2022-09-09T12:37:21.307Z,26.00
2022-09-09T12:39:29.404Z,26.00
2022-09-09T12:41:31.075Z,26.10
2022-09-09T12:43:33.205Z,26.10
2022-09-09T12:45:36.920Z,26.20
2022-09-09T12:47:38.726Z,26.20
2022-09-09T12:49:41.542Z,26.30
2022-09-09T12:51:44.275Z,26.40
2022-09-09T12:53:47.087Z,26.50
2022-09-09T12:55:53.042Z,26.60
2022-09-09T12:57:54.930Z,26.60
2022-09-09T13:00:06.422Z,26.70
2022-09-09T13:02:17.460Z,26.70
2022-09-09T13:04:21.350Z,26.80
2022-09-09T13:06:29.364Z,26.80
2022-09-09T13:08:31.498Z,26.80
2022-09-09T13:10:57.649Z,26.80
2022-09-09T13:13:02.751Z,26.80
2022-09-09T13:15:04.623Z,26.80
2022-09-09T13:17:07.419Z,26.80
2022-09-09T13:19:10.964Z,26.70
2022-09-09T13:21:13.205Z,26.70
2022-09-09T13:23:16.216Z,26.60
2022-09-09T13:25:17.867Z,26.60
2022-09-09T13:27:31.803Z,26.60
2022-09-09T13:29:33.542Z,26.50
2022-09-09T13:31:37.664Z,26.40
2022-09-09T13:33:39.938Z,26.30
2022-09-09T13:35:49.289Z,26.20
2022-09-09T13:37:50.958Z,26.10
2022-09-09T13:39:54.241Z,26.00
2022-09-09T13:41:56.039Z,25.90
2022-09-09T13:43:58.464Z,25.70
2022-09-09T13:46:02.144Z,25.70
2022-09-09T13:48:09.547Z,25.50
2022-09-09T13:50:19.799Z,25.40
2022-09-09T13:52:23.168Z,25.30
2022-09-09T13:54:24.874Z,25.20
2022-09-09T13:56:26.523Z,25.00
2022-09-09T13:58:28.226Z,24.90
2022-09-09T14:00:31.163Z,24.80
2022-09-09T14:02:35.950Z,24.60
2022-09-09T14:04:37.814Z,24.50
2022-09-09T14:06:40.298Z,24.40
2022-09-09T14:08:42.280Z,24.30
2022-09-09T14:10:44.041Z,24.30
2022-09-09T14:12:45.667Z,24.20
2022-09-09T14:14:47.429Z,24.20
2022-09-09T14:16:49.290Z,24.10
2022-09-09T14:18:51.497Z,24.10
2022-09-09T14:20:53.199Z,24.10
2022-09-09T14:22:54.854Z,24.10
2022-09-09T14:24:56.484Z,24.10
2022-09-09T14:26:58.116Z,24.10
2022-09-09T14:29:01.793Z,24.20
2022-09-09T14:31:04.697Z,24.20
2022-09-09T14:33:06.552Z,24.20
2022-09-09T14:35:08.416Z,24.30
2022-09-09T14:37:10.038Z,24.40
2022-09-09T14:39:11.736Z,24.50
2022-09-09T14:41:18.919Z,24.60
2022-09-09T14:43:21.225Z,24.70
2022-09-09T14:45:25.686Z,24.80
2022-09-09T14:47:27.363Z,24.90
2022-09-09T14:49:29.001Z,25.00
2022-09-09T14:51:30.642Z,25.00
2022-09-09T14:53:32.274Z,25.10
2022-09-09T14:55:34.141Z,25.20
2022-09-09T14:57:36.710Z,25.20
2022-09-09T14:59:38.342Z,25.20
2022-09-09T15:01:40.023Z,25.20
2022-09-09T15:03:42.623Z,25.20
2022-09-09T15:05:44.217Z,25.20
2022-09-09T15:07:45.849Z,25.10
2022-09-09T15:09:49.582Z,25.10
2022-09-09T15:11:51.281Z,25.00
2022-09-09T15:13:53.972Z,25.00
2022-09-09T15:15:55.654Z,24.90
2022-09-09T15:17:58.077Z,24.90
2022-09-09T15:19:59.822Z,24.70
2022-09-09T15:22:01.512Z,24.70
2022-09-09T15:24:03.239Z,24.60
2022-09-09T15:26:05.079Z,24.60
2022-09-09T15:28:06.697Z,24.50
2022-09-09T15:30:14.540Z,24.40
2022-09-09T15:32:16.150Z,24.40
2022-09-09T15:34:18.335Z,24.30
2022-09-09T15:36:23.619Z,24.30
2022-09-09T15:38:25.891Z,24.20
2022-09-09T15:40:27.872Z,24.10
2022-09-09T15:42:30.885Z,24.10
2022-09-09T15:44:39.171Z,24.00
2022-09-09T15:46:42.851Z,23.90
2022-09-09T15:48:45.160Z,23.90
2022-09-09T15:50:46.789Z,23.80
2022-09-09T15:52:48.408Z,23.70
2022-09-09T15:54:50.045Z,23.60
2022-09-09T15:56:59.945Z,23.60
2022-09-09T15:59:03.109Z,23.50
2022-09-09T16:01:05.649Z,23.40
2022-09-09T16:03:07.795Z,23.30
2022-09-09T16:05:09.485Z,23.20
2022-09-09T16:07:11.064Z,23.20
2022-09-09T16:09:12.686Z,23.10
2022-09-09T16:11:16.163Z,23.10
2022-09-09T16:13:18.050Z,23.00
2022-09-09T16:15:23.359Z,23.00
2022-09-09T16:17:24.971Z,23.00
2022-09-09T16:19:26.756Z,23.00
2022-09-09T16:21:32.694Z,23.00
2022-09-09T16:23:35.173Z,22.90
2022-09-09T16:25:36.795Z,22.90
2022-09-09T16:27:38.395Z,22.90
2022-09-09T16:29:40.204Z,22.90
2022-09-09T16:31:42.255Z,22.90
2022-09-09T16:33:44.154Z,22.90
2022-09-09T16:35:46.166Z,22.90
2022-09-09T16:37:47.767Z,22.90
2022-09-09T16:39:49.923Z,22.80
2022-09-09T16:41:53.137Z,22.80
2022-09-09T16:43:56.299Z,22.80
2022-09-09T16:45:58.316Z,22.80
2022-09-09T16:48:01.353Z,22.80
2022-09-09T16:50:03.096Z,22.70
2022-09-09T16:52:04.728Z,22.80
2022-09-09T16:54:10.071Z,22.70
2022-09-09T16:56:17.197Z,22.70
2022-09-09T16:58:18.853Z,22.60
2022-09-09T17:00:20.479Z,22.60
2022-09-09T17:02:22.268Z,22.60
2022-09-09T17:04:27.284Z,22.50
2022-09-09T17:06:29.895Z,22.50
2022-09-09T17:08:31.694Z,22.50
2022-09-09T17:10:33.303Z,22.40
2022-09-09T17:12:39.631Z,22.40
2022-09-09T17:14:43.758Z,22.40
2022-09-09T17:16:45.434Z,22.30
2022-09-09T17:18:47.074Z,22.30
2022-09-09T17:20:48.693Z,22.30
2022-09-09T17:22:50.359Z,22.20
2022-09-09T17:24:51.955Z,22.20
2022-09-09T17:26:54.196Z,22.10
2022-09-09T17:28:59.787Z,22.10
2022-09-09T17:31:02.836Z,22.00
2022-09-09T17:33:04.837Z,22.00
2022-09-09T17:35:06.773Z,22.00
2022-09-09T17:37:08.593Z,21.90
2022-09-09T17:39:10.231Z,21.90
2022-09-09T17:41:28.707Z,21.90
2022-09-09T17:43:30.400Z,21.90
2022-09-09T17:45:32.761Z,21.80
2022-09-09T17:47:34.520Z,21.80
2022-09-09T17:49:36.173Z,21.70
2022-09-09T17:51:37.858Z,21.70
2022-09-09T17:53:40.453Z,21.60
2022-09-09T17:55:42.092Z,21.60
2022-09-09T17:57:44.020Z,21.60
2022-09-09T17:59:45.877Z,21.50
2022-09-09T18:01:49.410Z,21.50
2022-09-09T18:03:52.147Z,21.50
2022-09-09T18:05:59.930Z,21.50
2022-09-09T18:08:01.634Z,21.40
2022-09-09T18:10:03.365Z,21.40
2022-09-09T18:12:05.175Z,21.40
2022-09-09T18:14:06.905Z,21.30
2022-09-09T18:16:09.287Z,21.40
2022-09-09T18:18:11.036Z,21.30
2022-09-09T18:20:13.246Z,21.30
2022-09-09T18:22:14.954Z,21.30
2022-09-09T18:24:17.695Z,21.30
2022-09-09T18:26:27.462Z,21.20
2022-09-09T18:28:29.315Z,21.20
2022-09-09T18:30:31.766Z,21.20
2022-09-09T18:32:34.170Z,21.20
2022-09-09T18:34:36.209Z,21.20
2022-09-09T18:36:39.730Z,21.20
2022-09-09T18:38:42.055Z,21.10
2022-09-09T18:40:43.906Z,21.10
2022-09-09T18:42:47.041Z,21.10
2022-09-09T18:44:48.844Z,21.10
2022-09-09T18:46:51.946Z,21.10
2022-09-09T18:48:56.054Z,21.10
2022-09-09T18:51:02.090Z,21.10
2022-09-09T18:53:03.783Z,21.10
2022-09-09T18:55:05.752Z,21.10
2022-09-09T18:57:07.401Z,21.10
2022-09-09T18:59:10.649Z,21.00
2022-09-09T19:01:13.161Z,21.00
2022-09-09T19:03:15.054Z,21.00
2022-09-09T19:05:16.707Z,21.00
2022-09-09T19:07:19.023Z,21.00
2022-09-09T19:09:20.692Z,21.00
2022-09-09T19:11:24.085Z,21.00
2022-09-09T19:13:27.091Z,21.00
2022-09-09T19:15:29.694Z,21.00
2022-09-09T19:17:32.326Z,21.00
2022-09-09T19:19:34.094Z,21.00
2022-09-09T19:21:39.753Z,20.90
2022-09-09T19:23:41.852Z,20.90
2022-09-09T19:25:43.521Z,20.90
2022-09-09T19:27:45.735Z,20.90
2022-09-09T19:29:48.318Z,20.90
2022-09-09T19:32:25.255Z,20.90
2022-09-09T19:34:12.668Z,20.80
2022-09-09T19:36:15.691Z,20.80
2022-09-09T19:38:17.938Z,20.80
2022-09-09T19:40:20.953Z,20.80
2022-09-09T19:42:22.551Z,20.80
2022-09-09T19:44:24.278Z,20.80
2022-09-09T19:46:26.304Z,20.70
2022-09-09T19:48:31.383Z,20.80
2022-09-09T19:50:36.137Z,20.70
2022-09-09T19:52:38.829Z,20.70
2022-09-09T19:54:40.602Z,20.70
2022-09-09T19:56:42.812Z,20.70
2022-09-09T19:58:45.421Z,20.70
2022-09-09T20:00:47.055Z,20.70
2022-09-09T20:03:08.884Z,20.70
2022-09-09T20:05:13.823Z,20.60
2022-09-09T20:07:15.805Z,20.60
2022-09-09T20:09:17.857Z,20.60
2022-09-09T20:11:20.356Z,20.60
2022-09-09T20:13:22.046Z,20.50
2022-09-09T20:15:23.687Z,20.60
2022-09-09T20:17:25.671Z,20.50
2022-09-09T20:19:27.323Z,20.50
2022-09-09T20:21:35.043Z,20.50
2022-09-09T20:23:37.410Z,20.40
2022-09-09T20:25:39.317Z,20.40
2022-09-09T20:27:41.163Z,20.40
2022-09-09T20:29:42.823Z,20.40
2022-09-09T20:31:44.939Z,20.40
2022-09-09T20:33:47.025Z,20.40
2022-09-09T20:35:48.795Z,20.30
2022-09-09T20:37:50.399Z,20.40
2022-09-09T20:39:52.668Z,20.30
2022-09-09T20:41:54.366Z,20.30
2022-09-09T20:43:57.631Z,20.30
2022-09-09T20:46:01.679Z,20.30
2022-09-09T20:48:03.971Z,20.30
2022-09-09T20:50:06.658Z,20.30
2022-09-09T20:52:11.013Z,20.30
2022-09-09T20:54:14.373Z,20.30
2022-09-09T20:56:16.910Z,20.20
2022-09-09T20:58:18.945Z,20.20
2022-09-09T21:00:20.672Z,20.30
2022-09-09T21:02:22.372Z,20.30
2022-09-09T21:04:25.033Z,20.20
2022-09-09T21:06:26.755Z,20.20
2022-09-09T21:08:28.472Z,20.20
2022-09-09T21:10:31.346Z,20.20
2022-09-09T21:12:33.005Z,20.20
2022-09-09T21:14:34.671Z,20.20
2022-09-09T21:16:36.373Z,20.20
2022-09-09T21:18:40.307Z,20.20
2022-09-09T21:20:43.263Z,20.20
2022-09-09T21:22:45.721Z,20.20
2022-09-09T21:24:47.385Z,20.20
2022-09-09T21:26:49.392Z,20.20
2022-09-09T21:28:51.263Z,20.20
2022-09-09T21:30:55.736Z,20.20
2022-09-09T21:32:58.056Z,20.20
2022-09-09T21:34:59.677Z,20.20
2022-09-09T21:37:02.170Z,20.20
2022-09-09T21:39:03.891Z,20.20
2022-09-09T21:41:09.854Z,20.20
2022-09-09T21:43:12.845Z,20.20
2022-09-09T21:45:14.927Z,20.10
2022-09-09T21:47:16.562Z,20.10
2022-09-09T21:49:18.189Z,20.10
2022-09-09T21:51:19.767Z,20.10
2022-09-09T21:53:21.407Z,20.10
2022-09-09T21:55:23.047Z,20.10
2022-09-09T21:57:25.160Z,20.10
2022-09-09T21:59:27.776Z,20.10
2022-09-09T22:01:33.068Z,20.10
2022-09-09T22:03:36.774Z,20.20
2022-09-09T22:05:42.233Z,20.10
2022-09-09T22:07:43.903Z,20.10
2022-09-09T22:09:45.578Z,20.10
2022-09-09T22:11:47.213Z,20.10
2022-09-09T22:13:49.386Z,20.10
2022-09-09T22:15:51.311Z,20.10
2022-09-09T22:17:53.297Z,20.10
2022-09-09T22:19:54.902Z,20.10
2022-09-09T22:21:56.501Z,20.10
2022-09-09T22:23:59.248Z,20.10
2022-09-09T22:26:00.840Z,20.10
2022-09-09T22:28:03.150Z,20.10
2022-09-09T22:30:05.014Z,20.10
2022-09-09T22:32:07.397Z,20.00
2022-09-09T22:34:09.033Z,20.10
2022-09-09T22:36:10.600Z,20.00
2022-09-09T22:38:12.477Z,20.00
2022-09-09T22:40:14.432Z,20.00
2022-09-09T22:42:16.169Z,20.00
2022-09-09T22:44:17.863Z,20.00
2022-09-09T22:46:19.747Z,20.00
2022-09-09T22:48:21.449Z,20.00
2022-09-09T22:50:23.062Z,20.00
2022-09-09T22:52:25.083Z,20.00
2022-09-09T22:54:26.903Z,20.00
2022-09-09T22:56:28.541Z,20.00
2022-09-09T22:58:31.626Z,20.00
2022-09-09T23:00:33.297Z,20.00
2022-09-09T23:02:40.710Z,20.00
2022-09-09T23:04:43.863Z,19.90
2022-09-09T23:06:46.764Z,19.90
2022-09-09T23:08:49.858Z,19.90
2022-09-09T23:10:54.935Z,19.90
2022-09-09T23:12:58.647Z,19.90
2022-09-09T23:15:00.291Z,19.90
2022-09-09T23:17:02.600Z,19.90
2022-09-09T23:19:04.737Z,19.90
2022-09-09T23:21:13.244Z,19.90
2022-09-09T23:23:14.901Z,19.90
2022-09-09T23:25:16.514Z,19.90
2022-09-09T23:27:18.255Z,19.90
2022-09-09T23:29:20.760Z,19.90
2022-09-09T23:31:24.755Z,19.90
2022-09-09T23:33:26.786Z,19.90
2022-09-09T23:35:28.408Z,19.80
2022-09-09T23:37:31.816Z,19.80
2022-09-09T23:39:33.485Z,19.80
2022-09-09T23:41:35.566Z,19.80
2022-09-09T23:43:39.468Z,19.80
2022-09-09T23:45:41.100Z,19.70
2022-09-09T23:47:42.696Z,19.70
2022-09-09T23:49:44.318Z,19.70
2022-09-09T23:51:45.898Z,19.70
2022-09-09T23:53:50.972Z,19.70
2022-09-09T23:55:53.688Z,19.70
2022-09-09T23:57:56.313Z,19.70
2022-09-09T23:59:57.915Z,19.60
